createdAt,value
2022-12-03T00:01:48.961Z,77.50
2022-12-03T00:04:15.612Z,67.70
2022-12-03T00:06:42.359Z,57.00
2022-12-03T00:09:09.153Z,97.50
2022-12-03T00:11:35.820Z,72.00
2022-12-03T00:14:02.765Z,90.30
2022-12-03T00:16:29.411Z,78.20
2022-12-03T00:18:56.202Z,83.20
2022-12-03T00:21:24.638Z,88.00
2022-12-03T00:23:51.806Z,77.30
2022-12-03T00:26:18.516Z,59.90
2022-12-03T00:28:45.175Z,91.70
2022-12-03T00:31:13.249Z,89.60
2022-12-03T00:33:40.106Z,83.00
2022-12-03T00:36:07.288Z,84.40
2022-12-03T00:38:33.879Z,73.90
2022-12-03T00:41:00.730Z,79.50
2022-12-03T00:43:27.438Z,78.60
2022-12-03T00:45:54.203Z,83.90
2022-12-03T00:48:20.816Z,77.30
2022-12-03T00:50:47.653Z,85.60
2022-12-03T00:53:14.350Z,78.90
2022-12-03T00:55:41.045Z,72.30
2022-12-03T00:58:10.536Z,74.00
2022-12-03T01:00:37.949Z,76.30
2022-12-03T01:03:05.459Z,73.90
2022-12-03T01:05:32.189Z,74.60
2022-12-03T01:07:59.063Z,69.60
2022-12-03T01:10:25.926Z,53.00
2022-12-03T01:12:52.655Z,71.30
2022-12-03T01:15:19.318Z,68.20
2022-12-03T01:17:46.199Z,69.50
2022-12-03T01:20:13.087Z,67.90
2022-12-03T01:22:40.040Z,51.00
2022-12-03T01:25:07.772Z,38.70
2022-12-03T01:27:34.651Z,56.80
2022-12-03T01:30:01.628Z,51.50
2022-12-03T01:32:28.251Z,47.30
2022-12-03T01:34:55.934Z,57.10
2022-12-03T01:37:25.128Z,43.70
2022-12-03T01:39:52.037Z,44.70
2022-12-03T01:42:25.333Z,50.80
2022-12-03T01:44:54.379Z,74.70
2022-12-03T01:47:27.444Z,57.00
2022-12-03T01:50:07.208Z,50.20
2022-12-03T01:52:37.794Z,42.00
2022-12-03T01:55:12.036Z,44.60
2022-12-03T01:57:46.013Z,63.00
2022-12-03T02:00:18.058Z,59.90
2022-12-03T02:02:47.800Z,67.80
2022-12-03T02:05:22.145Z,79.90
2022-12-03T02:07:50.049Z,58.40
2022-12-03T02:10:20.576Z,72.40
2022-12-03T02:12:57.123Z,61.90
2022-12-03T02:15:24.389Z,69.70
2022-12-03T02:17:51.767Z,57.00
2022-12-03T02:20:19.430Z,57.00
2022-12-03T02:22:50.641Z,44.90
2022-12-03T02:25:26.684Z,36.50
2022-12-03T02:27:54.792Z,75.80
2022-12-03T02:30:25.517Z,72.40
2022-12-03T02:32:53.542Z,73.40
2022-12-03T02:35:23.673Z,73.10
2022-12-03T02:38:01.835Z,56.60
2022-12-03T02:40:31.915Z,49.80
2022-12-03T02:43:02.472Z,52.50
2022-12-03T02:45:33.736Z,40.90
2022-12-03T02:48:04.528Z,70.60
2022-12-03T02:50:39.464Z,61.70
2022-12-03T02:53:11.627Z,57.30
2022-12-03T02:55:39.785Z,67.10
2022-12-03T02:58:07.238Z,62.00
2022-12-03T03:00:35.552Z,50.00
2022-12-03T03:03:04.599Z,37.50
2022-12-03T03:05:32.631Z,66.50
2022-12-03T03:08:00.369Z,49.40
2022-12-03T03:10:28.574Z,44.70
2022-12-03T03:12:55.910Z,44.90
2022-12-03T03:15:23.978Z,66.00
2022-12-03T03:17:51.249Z,69.60
2022-12-03T03:20:19.164Z,66.80
2022-12-03T03:22:45.893Z,75.00
2022-12-03T03:25:16.083Z,54.70
2022-12-03T03:27:44.219Z,33.70
2022-12-03T03:30:11.493Z,50.20
2022-12-03T03:32:39.458Z,53.50
2022-12-03T03:35:08.469Z,44.10
2022-12-03T03:37:35.699Z,36.40
2022-12-03T03:40:03.181Z,44.90
2022-12-03T03:42:29.755Z,45.80
2022-12-03T03:44:57.687Z,55.70
2022-12-03T03:47:25.258Z,63.70
2022-12-03T03:49:52.686Z,38.30
2022-12-03T03:52:20.147Z,70.60
2022-12-03T03:54:46.958Z,60.10
2022-12-03T03:57:13.991Z,66.00
2022-12-03T03:59:41.117Z,59.50
2022-12-03T04:02:19.899Z,73.40
2022-12-03T04:04:48.070Z,53.20
2022-12-03T04:07:15.927Z,70.20
2022-12-03T04:09:43.235Z,58.80
2022-12-03T04:12:30.580Z,70.30
2022-12-03T04:14:57.567Z,52.60
2022-12-03T04:17:24.523Z,64.80
2022-12-03T04:19:51.357Z,56.70
2022-12-03T04:22:36.640Z,70.70
2022-12-03T04:25:22.792Z,66.60
2022-12-03T04:28:11.815Z,66.20
2022-12-03T04:30:38.874Z,75.90
2022-12-03T04:33:24.210Z,74.90
2022-12-03T04:35:51.369Z,78.90
2022-12-03T04:38:18.211Z,59.00
2022-12-03T04:41:00.123Z,78.30
2022-12-03T04:43:27.911Z,61.10
2022-12-03T04:45:54.693Z,59.30
2022-12-03T04:48:21.451Z,74.60
2022-12-03T04:50:48.253Z,74.00
2022-12-03T04:53:15.181Z,77.30
2022-12-03T04:55:42.700Z,67.50
2022-12-03T04:58:10.119Z,66.20
2022-12-03T05:00:36.879Z,75.20
2022-12-03T05:03:04.201Z,77.80
2022-12-03T05:05:31.494Z,48.20
2022-12-03T05:07:58.189Z,67.80
2022-12-03T05:10:25.179Z,75.30
2022-12-03T05:12:51.808Z,51.90
2022-12-03T05:15:18.497Z,39.00
2022-12-03T05:17:45.295Z,64.70
2022-12-03T05:20:31.236Z,66.20
2022-12-03T05:22:57.969Z,56.30
2022-12-03T05:25:24.654Z,57.20
2022-12-03T05:27:51.367Z,57.20
2022-12-03T05:30:18.417Z,55.40
2022-12-03T05:33:10.772Z,55.30
2022-12-03T05:35:37.614Z,40.40
2022-12-03T05:38:04.311Z,51.60
2022-12-03T05:40:31.048Z,54.50
2022-12-03T05:43:00.593Z,61.80
2022-12-03T05:45:30.535Z,64.20
2022-12-03T05:47:58.984Z,52.70
2022-12-03T05:50:29.062Z,61.80
2022-12-03T05:52:56.905Z,65.70
2022-12-03T05:55:24.842Z,55.80
2022-12-03T05:57:51.920Z,42.20
2022-12-03T06:00:20.695Z,49.30
2022-12-03T06:02:47.629Z,58.50
2022-12-03T06:05:16.506Z,51.50
2022-12-03T06:07:43.459Z,35.80
2022-12-03T06:10:12.220Z,57.00
2022-12-03T06:12:39.198Z,56.20
2022-12-03T06:15:06.987Z,58.70
2022-12-03T06:17:33.796Z,39.30
2022-12-03T06:20:00.786Z,50.90
2022-12-03T06:22:27.534Z,59.20
2022-12-03T06:24:54.467Z,49.60
2022-12-03T06:27:21.262Z,57.40
2022-12-03T06:29:48.251Z,62.80
2022-12-03T06:32:15.133Z,69.90
2022-12-03T06:34:41.728Z,55.30
2022-12-03T06:37:08.560Z,61.10
2022-12-03T06:39:35.395Z,62.90
2022-12-03T06:42:02.339Z,77.70
2022-12-03T06:44:29.119Z,63.70
2022-12-03T06:46:55.873Z,38.80
2022-12-03T06:49:22.619Z,63.30
2022-12-03T06:51:49.524Z,79.80
2022-12-03T06:54:16.449Z,51.20
2022-12-03T06:56:45.462Z,44.90
2022-12-03T06:59:12.904Z,51.90
2022-12-03T07:01:39.756Z,79.00
2022-12-03T07:04:06.543Z,80.70
2022-12-03T07:06:33.355Z,86.30
2022-12-03T07:08:59.970Z,61.30
2022-12-03T07:11:31.423Z,80.10
2022-12-03T07:14:05.033Z,71.70
2022-12-03T07:16:36.296Z,78.50
2022-12-03T07:19:04.673Z,62.30
2022-12-03T07:21:31.752Z,51.70
2022-12-03T07:23:58.668Z,71.60
2022-12-03T07:26:25.499Z,73.80
2022-12-03T07:28:52.267Z,81.70
2022-12-03T07:31:19.144Z,60.80
2022-12-03T07:33:45.983Z,52.00
2022-12-03T07:36:12.728Z,50.20
2022-12-03T07:38:39.668Z,82.60
2022-12-03T07:41:06.766Z,80.20
2022-12-03T07:43:33.576Z,53.10
2022-12-03T07:46:00.270Z,104.30
2022-12-03T07:48:27.451Z,133.40
2022-12-03T07:50:54.362Z,133.20
2022-12-03T07:53:21.277Z,104.00
2022-12-03T07:55:47.810Z,170.50
2022-12-03T07:58:14.626Z,105.30
2022-12-03T08:00:41.543Z,77.50
2022-12-03T08:03:08.374Z,72.30
2022-12-03T08:05:34.954Z,53.40
2022-12-03T08:08:01.844Z,76.40
2022-12-03T08:10:28.710Z,70.70
2022-12-03T08:12:58.567Z,38.80
2022-12-03T08:15:32.252Z,61.50
2022-12-03T08:18:04.946Z,65.40
2022-12-03T08:20:37.118Z,66.70
2022-12-03T08:23:11.142Z,61.30
2022-12-03T08:25:37.901Z,58.20
2022-12-03T08:28:23.388Z,43.80
2022-12-03T08:31:20.581Z,36.90
2022-12-03T08:33:49.654Z,49.90
2022-12-03T08:36:30.764Z,49.50
2022-12-03T08:39:15.326Z,17.70
2022-12-03T08:42:00.854Z,42.90
2022-12-03T08:44:29.238Z,22.30
2022-12-03T08:47:19.364Z,40.90
2022-12-03T08:50:25.155Z,44.10
2022-12-03T08:52:53.608Z,31.50
2022-12-03T08:55:37.968Z,30.20
2022-12-03T08:58:22.560Z,53.70
2022-12-03T09:00:56.332Z,30.60
2022-12-03T09:03:24.058Z,47.60
2022-12-03T09:05:51.280Z,39.30
2022-12-03T09:08:18.086Z,28.60
2022-12-03T09:10:44.990Z,23.60
2022-12-03T09:13:11.594Z,35.50
2022-12-03T09:15:38.512Z,14.00
2022-12-03T09:18:05.172Z,41.00
2022-12-03T09:20:31.907Z,42.10
2022-12-03T09:22:58.679Z,38.60
2022-12-03T09:25:25.462Z,45.90
2022-12-03T09:27:52.467Z,42.90
2022-12-03T09:30:19.098Z,44.50
2022-12-03T09:32:45.964Z,42.00
2022-12-03T09:35:12.597Z,42.40
2022-12-03T09:37:39.366Z,33.60
2022-12-03T09:40:07.473Z,41.40
2022-12-03T09:42:34.581Z,42.50
2022-12-03T09:45:02.363Z,48.80
2022-12-03T09:47:30.392Z,33.10
2022-12-03T09:49:57.919Z,39.80
2022-12-03T09:52:27.734Z,39.10
2022-12-03T09:54:54.994Z,40.80
2022-12-03T09:57:22.022Z,41.20
2022-12-03T09:59:48.923Z,24.60
2022-12-03T10:02:35.977Z,28.90
2022-12-03T10:05:02.906Z,45.40
2022-12-03T10:07:29.823Z,47.60
2022-12-03T10:09:56.844Z,34.30
2022-12-03T10:12:24.389Z,38.10
2022-12-03T10:14:53.029Z,38.30
2022-12-03T10:17:20.808Z,35.00
2022-12-03T10:19:48.658Z,39.50
2022-12-03T10:22:15.435Z,44.20
2022-12-03T10:24:44.193Z,39.60
2022-12-03T10:27:29.627Z,43.50
2022-12-03T10:29:58.452Z,43.30
2022-12-03T10:32:37.769Z,26.70
2022-12-03T10:35:37.073Z,35.00
2022-12-03T10:38:06.821Z,32.10
2022-12-03T10:40:36.672Z,30.00
2022-12-03T10:43:18.922Z,45.20
2022-12-03T10:46:04.117Z,33.50
2022-12-03T10:48:31.234Z,39.60
2022-12-03T10:51:25.713Z,36.20
2022-12-03T10:53:53.863Z,34.20
2022-12-03T10:56:24.855Z,28.00
2022-12-03T10:58:51.898Z,12.60
2022-12-03T11:01:22.825Z,18.10
2022-12-03T11:03:50.244Z,18.50
2022-12-03T11:06:20.384Z,32.30
2022-12-03T11:08:57.141Z,28.00
2022-12-03T11:11:28.405Z,41.40
2022-12-03T11:14:04.450Z,25.50
2022-12-03T11:16:40.196Z,35.20
2022-12-03T11:19:12.904Z,30.30
2022-12-03T11:22:16.890Z,33.30
2022-12-03T11:24:44.356Z,30.80
2022-12-03T11:27:11.087Z,37.00
2022-12-03T11:29:59.050Z,26.10
2022-12-03T11:32:37.690Z,22.30
2022-12-03T11:35:22.496Z,22.60
2022-12-03T11:37:49.348Z,20.90
2022-12-03T11:40:16.060Z,21.20
2022-12-03T11:42:44.841Z,20.20
2022-12-03T11:45:37.091Z,31.60
2022-12-03T11:48:13.590Z,14.70
2022-12-03T11:50:42.563Z,38.40
2022-12-03T11:53:22.259Z,33.00
2022-12-03T11:56:04.067Z,23.00
2022-12-03T11:58:32.498Z,24.70
2022-12-03T12:01:03.110Z,25.20
2022-12-03T12:03:33.190Z,21.80
2022-12-03T12:06:09.309Z,33.30
2022-12-03T12:08:56.643Z,29.20
2022-12-03T12:11:27.874Z,29.20
2022-12-03T12:13:58.378Z,24.20
2022-12-03T12:16:50.194Z,16.10
2022-12-03T12:19:42.824Z,26.40
2022-12-03T12:22:15.269Z,36.40
2022-12-03T12:24:45.288Z,35.70
2022-12-03T12:27:21.370Z,46.50
2022-12-03T12:29:55.128Z,36.30
2022-12-03T12:32:38.229Z,45.50
2022-12-03T12:35:20.822Z,44.50
2022-12-03T12:37:58.545Z,38.80
2022-12-03T12:40:32.419Z,32.50
2022-12-03T12:43:08.191Z,37.80
2022-12-03T12:45:41.764Z,34.30
2022-12-03T12:48:14.729Z,13.00
2022-12-03T12:50:43.572Z,18.00
2022-12-03T12:53:10.519Z,38.20
2022-12-03T12:55:40.318Z,29.80
2022-12-03T12:58:27.837Z,28.80
2022-12-03T13:00:58.141Z,22.20
2022-12-03T13:03:28.276Z,25.20
2022-12-03T13:05:57.111Z,25.60
2022-12-03T13:08:42.205Z,21.10
2022-12-03T13:11:24.179Z,27.50
2022-12-03T13:13:51.605Z,23.90
2022-12-03T13:16:19.370Z,26.20
2022-12-03T13:18:57.775Z,34.50
2022-12-03T13:21:39.982Z,31.00
2022-12-03T13:24:25.507Z,32.60
2022-12-03T13:26:52.725Z,33.10
2022-12-03T13:29:22.265Z,30.70
2022-12-03T13:31:55.431Z,34.70
2022-12-03T13:34:25.912Z,35.40
2022-12-03T13:36:58.132Z,34.40
2022-12-03T13:39:32.709Z,29.70
2022-12-03T13:42:45.358Z,32.50
2022-12-03T13:45:18.301Z,29.60
2022-12-03T13:50:33.690Z,29.10
2022-12-03T13:53:29.106Z,29.00
2022-12-03T13:56:21.246Z,19.60
2022-12-03T13:58:48.043Z,21.00
2022-12-03T14:01:14.865Z,34.20
2022-12-03T14:03:41.699Z,33.70
2022-12-03T14:06:08.340Z,21.10
2022-12-03T14:08:35.141Z,40.50
2022-12-03T14:11:01.716Z,38.30
2022-12-03T14:13:28.494Z,37.50
2022-12-03T14:15:55.402Z,26.00
2022-12-03T14:18:22.408Z,37.80
2022-12-03T14:20:48.979Z,38.10
2022-12-03T14:23:15.809Z,40.00
2022-12-03T14:25:43.399Z,24.50
2022-12-03T14:28:10.498Z,34.00
2022-12-03T14:30:37.271Z,15.30
2022-12-03T14:33:04.209Z,18.60
2022-12-03T14:35:30.979Z,22.80
2022-12-03T14:37:57.792Z,23.50
2022-12-03T14:40:24.747Z,18.10
2022-12-03T14:42:51.352Z,22.70
2022-12-03T14:45:19.713Z,29.90
2022-12-03T14:47:46.610Z,36.00
2022-12-03T14:50:13.666Z,21.00
2022-12-03T14:52:40.363Z,34.60
2022-12-03T14:55:07.574Z,36.40
2022-12-03T14:57:36.236Z,36.00
2022-12-03T15:00:05.169Z,37.70
2022-12-03T15:02:32.218Z,36.70
2022-12-03T15:04:59.064Z,38.80
2022-12-03T15:07:25.937Z,36.10
2022-12-03T15:09:53.176Z,35.00
2022-12-03T15:12:20.257Z,36.20
2022-12-03T15:14:47.051Z,36.80
2022-12-03T15:17:13.827Z,30.50
2022-12-03T15:19:40.919Z,23.90
2022-12-03T15:22:07.573Z,36.00
2022-12-03T15:24:34.517Z,26.40
2022-12-03T15:27:01.239Z,25.20
2022-12-03T15:29:28.254Z,27.20
2022-12-03T15:31:54.937Z,19.90
2022-12-03T15:34:23.196Z,17.60
2022-12-03T15:36:51.010Z,35.10
2022-12-03T15:39:17.851Z,43.60
2022-12-03T15:41:44.706Z,39.90
2022-12-03T15:44:11.455Z,30.60
2022-12-03T15:46:38.370Z,22.60
2022-12-03T15:49:05.286Z,35.30
2022-12-03T15:51:33.081Z,39.30
2022-12-03T15:53:59.670Z,34.80
2022-12-03T15:56:26.713Z,23.10
2022-12-03T15:58:53.738Z,37.50
2022-12-03T16:01:20.957Z,34.20
2022-12-03T16:03:47.915Z,38.10
2022-12-03T16:06:15.075Z,29.60
2022-12-03T16:08:41.787Z,38.00
2022-12-03T16:11:08.621Z,30.10
2022-12-03T16:13:35.344Z,27.50
2022-12-03T16:16:02.472Z,44.60
2022-12-03T16:18:30.163Z,39.10
2022-12-03T16:20:56.854Z,42.00
2022-12-03T16:23:23.874Z,61.20
2022-12-03T16:25:50.541Z,67.80
2022-12-03T16:28:17.517Z,49.50
2022-12-03T16:30:44.486Z,56.20
2022-12-03T16:33:11.505Z,65.20
2022-12-03T16:35:38.157Z,46.90
2022-12-03T16:38:04.995Z,36.10
2022-12-03T16:40:31.770Z,40.30
2022-12-03T16:42:58.658Z,35.10
2022-12-03T16:45:50.330Z,40.40
2022-12-03T16:48:18.109Z,66.60
2022-12-03T16:50:44.797Z,48.10
2022-12-03T16:53:11.606Z,59.90
2022-12-03T16:55:38.491Z,44.10
2022-12-03T16:58:05.198Z,58.50
2022-12-03T17:00:32.026Z,36.30
2022-12-03T17:02:58.706Z,57.80
2022-12-03T17:05:25.625Z,43.30
2022-12-03T17:07:52.523Z,59.70
2022-12-03T17:10:19.301Z,69.10
2022-12-03T17:13:10.162Z,60.60
2022-12-03T17:15:33.590Z,68.20
2022-12-03T17:18:02.852Z,54.10
2022-12-03T17:20:30.715Z,40.20
2022-12-03T17:22:58.840Z,72.90
2022-12-03T17:25:26.315Z,75.60
2022-12-03T17:27:54.097Z,72.70
2022-12-03T17:30:20.967Z,35.70
2022-12-03T17:32:49.793Z,36.20
2022-12-03T17:35:17.376Z,27.60
2022-12-03T17:37:44.435Z,48.90
2022-12-03T17:40:16.316Z,41.20
2022-12-03T17:42:42.964Z,40.60
2022-12-03T17:45:10.527Z,26.90
2022-12-03T17:47:37.606Z,21.70
2022-12-03T17:50:05.273Z,31.30
2022-12-03T17:52:32.242Z,31.70
2022-12-03T17:55:21.544Z,28.10
2022-12-03T17:57:45.637Z,36.60
2022-12-03T18:00:12.799Z,51.00
2022-12-03T18:02:40.527Z,44.00
2022-12-03T18:05:07.759Z,53.00
2022-12-03T18:07:34.672Z,46.40
2022-12-03T18:10:01.908Z,51.80
2022-12-03T18:12:28.510Z,45.80
2022-12-03T18:14:55.268Z,58.10
2022-12-03T18:17:23.681Z,26.10
2022-12-03T18:19:50.700Z,41.30
2022-12-03T18:22:17.657Z,39.70
2022-12-03T18:24:46.258Z,35.00
2022-12-03T18:27:15.099Z,45.90
2022-12-03T18:29:41.939Z,30.90
2022-12-03T18:32:27.276Z,52.10
2022-12-03T18:34:55.949Z,37.20
2022-12-03T18:37:26.796Z,29.50
2022-12-03T18:39:54.733Z,23.50
2022-12-03T18:42:23.329Z,40.40
2022-12-03T18:44:52.090Z,34.50
2022-12-03T18:47:21.789Z,55.80
2022-12-03T18:49:49.065Z,43.90
2022-12-03T20:44:56.158Z,55.30
2022-12-03T20:47:23.259Z,30.80
2022-12-03T20:49:50.165Z,29.50
2022-12-03T20:52:16.999Z,40.10
2022-12-03T20:54:44.063Z,50.90
2022-12-03T20:57:10.729Z,64.20
2022-12-03T20:59:37.413Z,61.90
2022-12-03T21:02:04.398Z,41.20
2022-12-03T21:04:31.467Z,25.90
2022-12-03T21:06:58.240Z,38.90
2022-12-03T21:09:24.867Z,49.40
2022-12-03T21:11:51.594Z,57.20
2022-12-03T21:14:18.480Z,66.10
2022-12-03T21:19:35.502Z,110.50
2022-12-03T21:22:02.309Z,57.20
2022-12-03T21:24:29.498Z,35.10
2022-12-03T21:26:56.347Z,41.60
2022-12-03T21:29:23.221Z,26.50
2022-12-03T21:31:50.620Z,39.30
2022-12-03T21:34:17.340Z,31.10
2022-12-03T21:36:44.208Z,20.40
2022-12-03T21:39:10.992Z,32.40
2022-12-03T21:41:37.860Z,27.80
2022-12-03T21:44:04.528Z,15.50
2022-12-03T21:47:11.575Z,33.50
2022-12-03T21:49:19.840Z,24.90
2022-12-03T21:51:49.473Z,23.90
2022-12-03T21:54:16.182Z,24.90
2022-12-03T21:56:43.645Z,49.00
2022-12-03T21:59:10.310Z,26.60
2022-12-03T22:01:37.304Z,40.70
2022-12-03T22:04:04.348Z,15.70
2022-12-03T22:06:31.085Z,40.00
2022-12-03T22:08:57.808Z,32.10
2022-12-03T22:11:24.613Z,25.30
2022-12-03T22:13:51.442Z,24.00
2022-12-03T22:16:20.602Z,17.90
2022-12-03T22:18:47.636Z,21.80
2022-12-03T22:21:17.745Z,24.20
2022-12-03T22:23:44.603Z,15.00
2022-12-03T22:26:14.234Z,34.70
2022-12-03T22:28:49.055Z,34.40
2022-12-03T22:31:17.716Z,14.90
2022-12-03T22:33:47.672Z,50.70
2022-12-03T22:36:20.618Z,42.40
2022-12-03T22:38:49.855Z,26.30
2022-12-03T22:41:17.307Z,16.60
2022-12-03T22:43:44.927Z,11.30
2022-12-03T22:46:12.112Z,9.70
2022-12-03T22:48:39.763Z,9.50
2022-12-03T22:51:15.009Z,21.90
2022-12-03T22:53:41.946Z,19.40
2022-12-03T22:56:08.660Z,27.90
2022-12-03T22:58:37.394Z,30.50
2022-12-03T23:01:05.864Z,60.50
2022-12-03T23:03:32.991Z,33.90
2022-12-03T23:05:59.640Z,47.30
2022-12-03T23:08:26.450Z,37.10
2022-12-03T23:10:53.242Z,32.40
2022-12-03T23:13:20.282Z,25.40
2022-12-03T23:15:50.064Z,50.30
2022-12-03T23:18:18.757Z,10.80
2022-12-03T23:20:52.596Z,24.90
2022-12-03T23:23:20.968Z,16.30
2022-12-03T23:26:05.540Z,41.40
2022-12-03T23:28:35.123Z,56.30
2022-12-03T23:31:03.058Z,77.10
2022-12-03T23:33:33.998Z,64.40
2022-12-03T23:36:05.692Z,50.80
2022-12-03T23:38:32.538Z,27.60
2022-12-03T23:41:14.207Z,58.00
2022-12-03T23:43:41.035Z,77.60
2022-12-03T23:46:17.553Z,58.40
2022-12-03T23:48:45.059Z,53.50
2022-12-03T23:51:14.831Z,49.60
2022-12-03T23:53:42.933Z,41.10
2022-12-03T23:56:21.540Z,36.40
2022-12-03T23:58:48.389Z,46.90
